sensor_id;sensor_type;location;lat;lon;timestamp;pressure;altitude;pressure_sealevel;temperature;humidity
51299;BME280;37382;45.192;9.790;2023-05-16T00:02:05;100273.28;;;16.52;100.00
51299;BME280;37382;45.192;9.790;2023-05-16T00:04:34;100268.84;;;16.68;100.00
51299;BME280;37382;45.192;9.790;2023-05-16T00:07:02;100269.03;;;16.45;100.00
51299;BME280;37382;45.192;9.790;2023-05-16T00:09:29;100266.59;;;16.31;100.00
51299;BME280;37382;45.192;9.790;2023-05-16T00:11:57;100259.34;;;16.25;100.00
51299;BME280;37382;45.192;9.790;2023-05-16T00:14:25;100249.34;;;16.02;100.00
51299;BME280;37382;45.192;9.790;2023-05-16T00:16:52;100245.44;;;15.86;100.00
51299;BME280;37382;45.192;9.790;2023-05-16T00:19:20;100244.97;;;15.89;100.00
51299;BME280;37382;45.192;9.790;2023-05-16T00:21:48;100245.28;;;15.64;100.00
51299;BME280;37382;45.192;9.790;2023-05-16T00:24:16;100240.56;;;15.47;100.00
51299;BME280;37382;45.192;9.790;2023-05-16T00:26:44;100242.22;;;15.48;100.00
51299;BME280;37382;45.192;9.790;2023-05-16T00:29:11;100235.22;;;15.81;100.00
51299;BME280;37382;45.192;9.790;2023-05-16T00:31:39;100234.13;;;16.11;100.00
51299;BME280;37382;45.192;9.790;2023-05-16T00:34:07;100231.31;;;16.23;100.00
51299;BME280;37382;45.192;9.790;2023-05-16T00:36:35;100233.47;;;16.21;100.00
51299;BME280;37382;45.192;9.790;2023-05-16T00:39:02;100234.16;;;16.28;100.00
51299;BME280;37382;45.192;9.790;2023-05-16T00:41:30;100234.13;;;16.11;100.00
51299;BME280;37382;45.192;9.790;2023-05-16T00:43:58;100228.97;;;16.15;100.00
51299;BME280;37382;45.192;9.790;2023-05-16T00:46:26;100224.75;;;16.24;100.00
51299;BME280;37382;45.192;9.790;2023-05-16T00:48:54;100226.16;;;16.10;100.00
51299;BME280;37382;45.192;9.790;2023-05-16T00:51:22;100227.88;;;15.99;100.00
51299;BME280;37382;45.192;9.790;2023-05-16T00:53:50;100228.03;;;16.09;100.00
51299;BME280;37382;45.192;9.790;2023-05-16T00:56:18;100224.78;;;15.95;100.00
51299;BME280;37382;45.192;9.790;2023-05-16T00:58:47;100213.66;;;15.73;100.00
51299;BME280;37382;45.192;9.790;2023-05-16T01:01:17;100218.19;;;15.68;100.00
51299;BME280;37382;45.192;9.790;2023-05-16T01:03:46;100210.25;;;15.95;100.00
51299;BME280;37382;45.192;9.790;2023-05-16T04:09:24;100106.44;;;14.88;100.00
51299;BME280;37382;45.192;9.790;2023-05-16T04:11:52;100104.69;;;15.23;100.00
51299;BME280;37382;45.192;9.790;2023-05-16T04:14:19;100102.19;;;15.21;100.00
51299;BME280;37382;45.192;9.790;2023-05-16T04:16:47;100098.34;;;15.51;100.00
51299;BME280;37382;45.192;9.790;2023-05-16T04:19:14;100094.34;;;15.42;100.00
51299;BME280;37382;45.192;9.790;2023-05-16T04:21:41;100088.88;;;15.42;100.00
51299;BME280;37382;45.192;9.790;2023-05-16T04:24:09;100095.53;;;15.63;100.00
51299;BME280;37382;45.192;9.790;2023-05-16T04:26:36;100086.84;;;15.37;100.00
51299;BME280;37382;45.192;9.790;2023-05-16T04:29:04;100093.06;;;15.04;100.00
51299;BME280;37382;45.192;9.790;2023-05-16T04:31:32;100089.09;;;15.11;100.00
51299;BME280;37382;45.192;9.790;2023-05-16T04:33:59;100092.56;;;15.07;100.00
51299;BME280;37382;45.192;9.790;2023-05-16T04:36:28;100091.31;;;14.98;100.00
51299;BME280;37382;45.192;9.790;2023-05-16T04:38:58;100098.47;;;14.87;100.00
51299;BME280;37382;45.192;9.790;2023-05-16T04:41:26;100100.31;;;15.10;100.00
51299;BME280;37382;45.192;9.790;2023-05-16T04:43:54;100097.81;;;15.37;100.00
51299;BME280;37382;45.192;9.790;2023-05-16T04:46:23;100103.63;;;15.41;100.00
51299;BME280;37382;45.192;9.790;2023-05-16T04:48:51;100107.91;;;15.48;100.00
51299;BME280;37382;45.192;9.790;2023-05-16T04:51:20;100104.84;;;15.62;100.00
51299;BME280;37382;45.192;9.790;2023-05-16T04:53:48;100111.94;;;15.75;100.00
51299;BME280;37382;45.192;9.790;2023-05-16T04:56:15;100114.44;;;15.76;100.00
51299;BME280;37382;45.192;9.790;2023-05-16T04:58:42;100119.97;;;15.93;100.00
51299;BME280;37382;45.192;9.790;2023-05-16T05:01:10;100109.47;;;16.07;100.00
51299;BME280;37382;45.192;9.790;2023-05-16T05:03:37;100116.97;;;16.12;100.00
51299;BME280;37382;45.192;9.790;2023-05-16T05:06:05;100116.56;;;16.20;100.00
51299;BME280;37382;45.192;9.790;2023-05-16T05:08:33;100113.84;;;15.74;100.00
51299;BME280;37382;45.192;9.790;2023-05-16T05:11:00;100113.50;;;15.71;100.00
51299;BME280;37382;45.192;9.790;2023-05-16T05:13:27;100111.66;;;15.88;100.00
51299;BME280;37382;45.192;9.790;2023-05-16T05:15:55;100115.31;;;15.65;100.00
51299;BME280;37382;45.192;9.790;2023-05-16T05:18:22;100115.47;;;15.87;100.00
51299;BME280;37382;45.192;9.790;2023-05-16T05:20:49;100110.66;;;16.11;100.00
51299;BME280;37382;45.192;9.790;2023-05-16T05:23:18;100118.72;;;16.18;100.00
51299;BME280;37382;45.192;9.790;2023-05-16T05:25:47;100111.72;;;16.27;100.00
51299;BME280;37382;45.192;9.790;2023-05-16T05:28:14;100112.22;;;16.24;100.00
51299;BME280;37382;45.192;9.790;2023-05-16T05:30:42;100112.72;;;16.21;100.00
51299;BME280;37382;45.192;9.790;2023-05-16T05:33:10;100107.31;;;16.26;100.00
51299;BME280;37382;45.192;9.790;2023-05-16T05:35:37;100109.56;;;16.29;100.00
51299;BME280;37382;45.192;9.790;2023-05-16T05:38:05;100104.81;;;16.42;100.00
51299;BME280;37382;45.192;9.790;2023-05-16T05:40:33;100103.63;;;16.38;100.00
51299;BME280;37382;45.192;9.790;2023-05-16T05:43:00;100110.50;;;16.57;100.00
51299;BME280;37382;45.192;9.790;2023-05-16T05:45:28;100111.03;;;16.54;100.00
51299;BME280;37382;45.192;9.790;2023-05-16T05:47:56;100101.34;;;16.29;100.00
51299;BME280;37382;45.192;9.790;2023-05-16T05:50:24;100104.56;;;16.43;100.00
51299;BME280;37382;45.192;9.790;2023-05-16T05:52:52;100098.50;;;16.24;100.00
51299;BME280;37382;45.192;9.790;2023-05-16T05:55:19;100104.56;;;16.09;100.00
51299;BME280;37382;45.192;9.790;2023-05-16T05:57:47;100101.22;;;16.24;100.00
51299;BME280;37382;45.192;9.790;2023-05-16T06:00:14;100109.97;;;16.21;100.00
51299;BME280;37382;45.192;9.790;2023-05-16T06:02:42;100103.97;;;16.24;100.00
51299;BME280;37382;45.192;9.790;2023-05-16T06:05:09;100106.94;;;16.40;100.00
51299;BME280;37382;45.192;9.790;2023-05-16T06:07:37;100104.88;;;16.47;100.00
51299;BME280;37382;45.192;9.790;2023-05-16T06:10:05;100111.16;;;16.64;100.00
51299;BME280;37382;45.192;9.790;2023-05-16T06:12:35;100122.28;;;16.75;100.00
51299;BME280;37382;45.192;9.790;2023-05-16T06:15:02;100120.63;;;16.74;100.00
51299;BME280;37382;45.192;9.790;2023-05-16T06:17:30;100122.09;;;16.81;100.00
51299;BME280;37382;45.192;9.790;2023-05-16T06:19:58;100121.97;;;16.71;100.00
51299;BME280;37382;45.192;9.790;2023-05-16T06:22:26;100117.28;;;16.71;100.00
51299;BME280;37382;45.192;9.790;2023-05-16T06:24:53;100124.44;;;16.72;100.00
51299;BME280;37382;45.192;9.790;2023-05-16T06:27:22;100128.28;;;16.71;100.00
51299;BME280;37382;45.192;9.790;2023-05-16T06:29:49;100134.13;;;16.97;100.00
51299;BME280;37382;45.192;9.790;2023-05-16T06:32:17;100129.84;;;16.84;100.00
51299;BME280;37382;45.192;9.790;2023-05-16T06:34:44;100129.03;;;16.67;100.00
51299;BME280;37382;45.192;9.790;2023-05-16T06:37:12;100133.38;;;16.63;100.00
51299;BME280;37382;45.192;9.790;2023-05-16T06:39:40;100148.72;;;16.81;100.00
51299;BME280;37382;45.192;9.790;2023-05-16T06:42:07;100158.81;;;16.92;100.00
51299;BME280;37382;45.192;9.790;2023-05-16T06:44:36;100146.41;;;16.72;100.00
51299;BME280;37382;45.192;9.790;2023-05-16T06:47:04;100149.03;;;16.45;100.00
51299;BME280;37382;45.192;9.790;2023-05-16T06:49:33;100147.13;;;16.63;100.00
51299;BME280;37382;45.192;9.790;2023-05-16T06:52:01;100149.56;;;16.42;100.00
51299;BME280;37382;45.192;9.790;2023-05-16T06:54:28;100149.22;;;16.39;100.00
51299;BME280;37382;45.192;9.790;2023-05-16T06:56:55;100143.66;;;16.33;100.00
51299;BME280;37382;45.192;9.790;2023-05-16T06:59:23;100148.72;;;16.42;100.00
51299;BME280;37382;45.192;9.790;2023-05-16T07:01:54;100148.84;;;16.69;100.00
51299;BME280;37382;45.192;9.790;2023-05-16T07:04:22;100160.97;;;16.34;100.00
51299;BME280;37382;45.192;9.790;2023-05-16T07:06:50;100164.59;;;16.40;100.00
51299;BME280;37382;45.192;9.790;2023-05-16T07:09:20;100160.72;;;16.18;100.00
51299;BME280;37382;45.192;9.790;2023-05-16T07:11:47;100155.28;;;16.41;100.00
51299;BME280;37382;45.192;9.790;2023-05-16T07:14:14;100155.59;;;16.44;100.00
51299;BME280;37382;45.192;9.790;2023-05-16T07:16:42;100156.13;;;16.58;100.00
51299;BME280;37382;45.192;9.790;2023-05-16T07:19:10;100153.56;;;16.34;100.00
51299;BME280;37382;45.192;9.790;2023-05-16T07:21:38;100158.84;;;16.41;100.00
51299;BME280;37382;45.192;9.790;2023-05-16T07:24:06;100144.81;;;16.38;100.00
51299;BME280;37382;45.192;9.790;2023-05-16T07:26:34;100143.66;;;16.33;100.00
51299;BME280;37382;45.192;9.790;2023-05-16T07:29:02;100148.28;;;16.50;100.00
51299;BME280;37382;45.192;9.790;2023-05-16T07:31:30;100161.13;;;16.83;100.00
51299;BME280;37382;45.192;9.790;2023-05-16T07:33:59;100160.47;;;16.76;100.00
51299;BME280;37382;45.192;9.790;2023-05-16T07:36:27;100153.13;;;16.60;100.00
51299;BME280;37382;45.192;9.790;2023-05-16T07:38:55;100162.53;;;16.47;100.00
51299;BME280;37382;45.192;9.790;2023-05-16T07:41:23;100162.59;;;16.35;100.00
51299;BME280;37382;45.192;9.790;2023-05-16T07:43:51;100170.59;;;16.19;100.00
51299;BME280;37382;45.192;9.790;2023-05-16T07:46:19;100170.00;;;16.51;100.00
51299;BME280;37382;45.192;9.790;2023-05-16T07:48:47;100160.03;;;16.28;100.00
51299;BME280;37382;45.192;9.790;2023-05-16T07:51:14;100172.09;;;16.44;100.00
51299;BME280;37382;45.192;9.790;2023-05-16T07:53:42;100180.16;;;16.51;100.00
51299;BME280;37382;45.192;9.790;2023-05-16T07:56:10;100172.75;;;16.34;100.00
51299;BME280;37382;45.192;9.790;2023-05-16T07:58:37;100156.44;;;16.11;100.00
51299;BME280;37382;45.192;9.790;2023-05-16T08:01:05;100168.94;;;16.18;100.00
51299;BME280;37382;45.192;9.790;2023-05-16T08:03:33;100166.84;;;16.26;100.00
51299;BME280;37382;45.192;9.790;2023-05-16T08:06:01;100163.09;;;16.49;100.00
51299;BME280;37382;45.192;9.790;2023-05-16T08:08:29;100165.09;;;16.19;100.00
51299;BME280;37382;45.192;9.790;2023-05-16T08:10:57;100159.13;;;16.06;100.00
51299;BME280;37382;45.192;9.790;2023-05-16T08:13:25;100161.44;;;16.14;100.00
51299;BME280;37382;45.192;9.790;2023-05-16T08:15:52;100162.53;;;16.13;100.00
51299;BME280;37382;45.192;9.790;2023-05-16T08:18:20;100172.44;;;16.31;100.00
51299;BME280;37382;45.192;9.790;2023-05-16T08:20:49;100158.31;;;15.47;100.00
51299;BME280;37382;45.192;9.790;2023-05-16T08:23:17;100146.13;;;16.35;100.00
51299;BME280;37382;45.192;9.790;2023-05-16T08:25:46;100124.75;;;16.54;100.00
51299;BME280;37382;45.192;9.790;2023-05-16T08:28:13;100134.34;;;16.17;100.00
51299;BME280;37382;45.192;9.790;2023-05-16T08:30:41;100135.53;;;15.76;100.00
51299;BME280;37382;45.192;9.790;2023-05-16T08:33:11;100141.44;;;15.39;100.00
51299;BME280;37382;45.192;9.790;2023-05-16T08:35:43;100140.56;;;15.50;100.00
51299;BME280;37382;45.192;9.790;2023-05-16T08:38:11;100143.59;;;15.65;100.00
51299;BME280;37382;45.192;9.790;2023-05-16T08:40:39;100141.47;;;15.85;100.00
51299;BME280;37382;45.192;9.790;2023-05-16T08:43:06;100155.47;;;15.42;100.00
51299;BME280;37382;45.192;9.790;2023-05-16T08:45:34;100151.47;;;16.08;100.00
51299;BME280;37382;45.192;9.790;2023-05-16T08:48:03;100154.72;;;16.22;100.00
51299;BME280;37382;45.192;9.790;2023-05-16T08:50:35;100164.97;;;16.26;100.00
51299;BME280;37382;45.192;9.790;2023-05-16T08:53:06;100162.50;;;16.64;100.00
51299;BME280;37382;45.192;9.790;2023-05-16T08:55:40;100159.44;;;16.60;100.00
51299;BME280;37382;45.192;9.790;2023-05-16T08:58:09;100166.94;;;16.48;100.00
51299;BME280;37382;45.192;9.790;2023-05-16T09:00:38;100193.53;;;16.47;100.00
51299;BME280;37382;45.192;9.790;2023-05-16T09:03:06;100178.56;;;16.72;100.00
51299;BME280;37382;45.192;9.790;2023-05-16T09:05:34;100177.53;;;16.95;100.00
51299;BME280;37382;45.192;9.790;2023-05-16T09:08:02;100170.69;;;16.81;100.00
51299;BME280;37382;45.192;9.790;2023-05-16T09:10:30;100174.72;;;17.12;100.00
51299;BME280;37382;45.192;9.790;2023-05-16T09:12:59;100168.97;;;16.75;100.00
51299;BME280;37382;45.192;9.790;2023-05-16T09:15:30;100178.56;;;16.89;100.00
51299;BME280;37382;45.192;9.790;2023-05-16T09:17:59;100185.19;;;16.93;100.00
51299;BME280;37382;45.192;9.790;2023-05-16T09:20:29;100187.00;;;17.04;100.00
51299;BME280;37382;45.192;9.790;2023-05-16T09:22:58;100187.84;;;17.27;100.00
51299;BME280;37382;45.192;9.790;2023-05-16T09:25:28;100184.50;;;17.03;100.00
51299;BME280;37382;45.192;9.790;2023-05-16T09:28:00;100192.25;;;17.06;100.00
51299;BME280;37382;45.192;9.790;2023-05-16T09:30:31;100199.16;;;17.09;100.00
51299;BME280;37382;45.192;9.790;2023-05-16T09:33:01;100216.66;;;17.02;100.00
51299;BME280;37382;45.192;9.790;2023-05-16T09:35:30;100220.41;;;16.96;100.00
51299;BME280;37382;45.192;9.790;2023-05-16T09:38:15;100231.72;;;17.00;100.00
51299;BME280;37382;45.192;9.790;2023-05-16T09:40:44;100238.97;;;17.06;100.00
51299;BME280;37382;45.192;9.790;2023-05-16T09:43:14;100229.75;;;17.17;100.00
51299;BME280;37382;45.192;9.790;2023-05-16T09:45:47;100229.81;;;17.00;100.00
51299;BME280;37382;45.192;9.790;2023-05-16T09:48:16;100226.59;;;16.52;100.00
51299;BME280;37382;45.192;9.790;2023-05-16T09:50:50;100233.88;;;16.81;100.00
51299;BME280;37382;45.192;9.790;2023-05-16T09:53:25;100236.53;;;17.10;100.00
51299;BME280;37382;45.192;9.790;2023-05-16T09:56:00;100235.66;;;16.36;100.00
51299;BME280;37382;45.192;9.790;2023-05-16T09:58:30;100229.31;;;16.69;100.00
51299;BME280;37382;45.192;9.790;2023-05-16T10:00:58;100229.19;;;17.15;100.00
51299;BME280;37382;45.192;9.790;2023-05-16T10:03:27;100223.06;;;17.52;100.00
51299;BME280;37382;45.192;9.790;2023-05-16T10:05:55;100220.13;;;17.15;100.00
51299;BME280;37382;45.192;9.790;2023-05-16T10:08:24;100222.56;;;17.33;100.00
51299;BME280;37382;45.192;9.790;2023-05-16T10:10:54;100214.94;;;17.63;100.00
51299;BME280;37382;45.192;9.790;2023-05-16T10:13:25;100221.66;;;16.71;100.00
51299;BME280;37382;45.192;9.790;2023-05-16T10:15:56;100226.22;;;17.00;100.00
51299;BME280;37382;45.192;9.790;2023-05-16T10:18:31;100231.50;;;17.46;100.00
51299;BME280;37382;45.192;9.790;2023-05-16T10:21:07;100222.56;;;17.83;100.00
51299;BME280;37382;45.192;9.790;2023-05-16T10:23:42;100231.28;;;17.52;100.00
51299;BME280;37382;45.192;9.790;2023-05-16T10:26:10;100228.72;;;17.90;100.00
51299;BME280;37382;45.192;9.790;2023-05-16T10:28:40;100223.53;;;17.93;100.00
51299;BME280;37382;45.192;9.790;2023-05-16T10:31:09;100222.03;;;18.08;100.00
51299;BME280;37382;45.192;9.790;2023-05-16T10:33:38;100218.50;;;18.12;100.00
51299;BME280;37382;45.192;9.790;2023-05-16T10:36:07;100216.94;;;17.94;100.00
51299;BME280;37382;45.192;9.790;2023-05-16T10:38:37;100226.13;;;17.56;100.00
51299;BME280;37382;45.192;9.790;2023-05-16T10:41:07;100215.72;;;17.85;100.00
51299;BME280;37382;45.192;9.790;2023-05-16T10:43:35;100223.00;;;17.69;100.00
51299;BME280;37382;45.192;9.790;2023-05-16T10:46:07;100214.66;;;17.86;100.00
51299;BME280;37382;45.192;9.790;2023-05-16T10:48:39;100224.06;;;17.68;100.00
51299;BME280;37382;45.192;9.790;2023-05-16T10:53:51;100222.03;;;17.86;100.00
51299;BME280;37382;45.192;9.790;2023-05-16T10:56:23;100238.22;;;18.04;100.00
51299;BME280;37382;45.192;9.790;2023-05-16T10:58:53;100242.72;;;18.10;100.00
51299;BME280;37382;45.192;9.790;2023-05-16T11:01:31;100233.19;;;17.96;100.00
51299;BME280;37382;45.192;9.790;2023-05-16T11:04:11;100225.00;;;17.79;100.00
51299;BME280;37382;45.192;9.790;2023-05-16T11:14:26;100219.44;;;17.96;100.00
51299;BME280;37382;45.192;9.790;2023-05-16T11:17:06;100195.50;;;17.47;100.00
51299;BME280;37382;45.192;9.790;2023-05-16T11:25:00;100170.50;;;16.48;100.00
51299;BME280;37382;45.192;9.790;2023-05-16T11:27:42;100172.97;;;16.67;100.00
51299;BME280;37382;45.192;9.790;2023-05-16T11:30:14;100176.69;;;16.78;100.00
51299;BME280;37382;45.192;9.790;2023-05-16T11:32:44;100175.69;;;16.84;100.00
51299;BME280;37382;45.192;9.790;2023-05-16T11:35:16;100169.28;;;16.39;100.00
51299;BME280;37382;45.192;9.790;2023-05-16T11:37:44;100173.31;;;16.70;100.00
51299;BME280;37382;45.192;9.790;2023-05-16T11:40:13;100168.09;;;17.30;100.00
51299;BME280;37382;45.192;9.790;2023-05-16T11:42:47;100174.78;;;17.89;100.00
51299;BME280;37382;45.192;9.790;2023-05-16T11:47:45;100179.94;;;17.58;100.00
51299;BME280;37382;45.192;9.790;2023-05-16T11:50:22;100182.56;;;17.70;100.00
51299;BME280;37382;45.192;9.790;2023-05-16T11:52:52;100170.56;;;17.81;100.00
51299;BME280;37382;45.192;9.790;2023-05-16T11:55:25;100161.91;;;18.27;100.00
51299;BME280;37382;45.192;9.790;2023-05-16T11:58:08;100161.78;;;18.44;100.00
51299;BME280;37382;45.192;9.790;2023-05-16T12:00:46;100147.09;;;18.01;100.00
51299;BME280;37382;45.192;9.790;2023-05-16T12:03:14;100144.88;;;17.98;100.00
51299;BME280;37382;45.192;9.790;2023-05-16T12:05:52;100138.75;;;18.23;100.00
51299;BME280;37382;45.192;9.790;2023-05-16T12:08:21;100131.22;;;17.81;100.00
51299;BME280;37382;45.192;9.790;2023-05-16T12:10:50;100143.38;;;17.85;100.00
51299;BME280;37382;45.192;9.790;2023-05-16T12:13:22;100144.97;;;17.81;100.00
51299;BME280;37382;45.192;9.790;2023-05-16T12:15:51;100141.31;;;17.75;100.00
51299;BME280;37382;45.192;9.790;2023-05-16T12:18:19;100142.22;;;17.81;100.00
51299;BME280;37382;45.192;9.790;2023-05-16T12:20:48;100140.63;;;17.35;100.00
51299;BME280;37382;45.192;9.790;2023-05-16T12:23:16;100152.97;;;17.82;100.00
51299;BME280;37382;45.192;9.790;2023-05-16T12:25:45;100166.34;;;17.73;100.00
51299;BME280;37382;45.192;9.790;2023-05-16T12:28:15;100160.59;;;18.02;100.00
51299;BME280;37382;45.192;9.790;2023-05-16T12:30:44;100162.69;;;17.90;100.00
51299;BME280;37382;45.192;9.790;2023-05-16T12:33:15;100153.09;;;17.92;100.00
51299;BME280;37382;45.192;9.790;2023-05-16T12:35:44;100150.09;;;17.94;100.00
51299;BME280;37382;45.192;9.790;2023-05-16T12:38:14;100149.84;;;18.01;100.00
51299;BME280;37382;45.192;9.790;2023-05-16T12:40:43;100150.72;;;18.39;100.00
51299;BME280;37382;45.192;9.790;2023-05-16T12:45:39;100153.13;;;19.20;100.00
51299;BME280;37382;45.192;9.790;2023-05-16T12:48:14;100150.84;;;20.27;100.00
51299;BME280;37382;45.192;9.790;2023-05-16T12:50:41;100154.75;;;19.16;100.00
51299;BME280;37382;45.192;9.790;2023-05-16T12:53:11;100148.91;;;20.02;100.00
51299;BME280;37382;45.192;9.790;2023-05-16T12:55:41;100142.81;;;20.46;100.00
51299;BME280;37382;45.192;9.790;2023-05-16T12:58:10;100154.97;;;20.30;100.00
51299;BME280;37382;45.192;9.790;2023-05-16T13:00:38;100151.97;;;20.11;100.00
51299;BME280;37382;45.192;9.790;2023-05-16T13:03:06;100151.59;;;19.55;100.00
51299;BME280;37382;45.192;9.790;2023-05-16T13:05:34;100152.47;;;19.87;100.00
51299;BME280;37382;45.192;9.790;2023-05-16T13:08:03;100155.63;;;19.22;100.00
51299;BME280;37382;45.192;9.790;2023-05-16T13:10:30;100159.72;;;19.19;100.00
51299;BME280;37382;45.192;9.790;2023-05-16T13:12:58;100154.00;;;19.26;100.00
51299;BME280;37382;45.192;9.790;2023-05-16T13:15:26;100150.25;;;19.73;100.00
51299;BME280;37382;45.192;9.790;2023-05-16T13:17:54;100151.69;;;20.22;100.00
51299;BME280;37382;45.192;9.790;2023-05-16T13:20:22;100145.31;;;20.06;100.00
51299;BME280;37382;45.192;9.790;2023-05-16T13:22:50;100139.44;;;19.51;100.00
51299;BME280;37382;45.192;9.790;2023-05-16T13:25:17;100150.03;;;20.32;100.00
51299;BME280;37382;45.192;9.790;2023-05-16T13:27:45;100135.06;;;20.58;100.00
51299;BME280;37382;45.192;9.790;2023-05-16T13:30:15;100130.34;;;20.64;100.00
51299;BME280;37382;45.192;9.790;2023-05-16T13:32:43;100145.81;;;18.89;100.00
51299;BME280;37382;45.192;9.790;2023-05-16T13:35:10;100147.97;;;19.50;100.00
51299;BME280;37382;45.192;9.790;2023-05-16T13:37:38;100155.78;;;19.00;100.00
51299;BME280;37382;45.192;9.790;2023-05-16T13:40:07;100149.56;;;19.20;100.00
51299;BME280;37382;45.192;9.790;2023-05-16T13:42:38;100151.81;;;19.44;100.00
51299;BME280;37382;45.192;9.790;2023-05-16T13:45:06;100150.97;;;19.28;100.00
51299;BME280;37382;45.192;9.790;2023-05-16T13:47:34;100152.56;;;18.65;100.00
51299;BME280;37382;45.192;9.790;2023-05-16T13:50:03;100147.84;;;18.66;100.00
51299;BME280;37382;45.192;9.790;2023-05-16T13:52:36;100147.84;;;18.66;100.00
51299;BME280;37382;45.192;9.790;2023-05-16T13:55:05;100141.97;;;18.47;100.00
51299;BME280;37382;45.192;9.790;2023-05-16T13:57:33;100138.19;;;18.21;100.00
51299;BME280;37382;45.192;9.790;2023-05-16T14:00:01;100124.50;;;18.31;100.00
51299;BME280;37382;45.192;9.790;2023-05-16T14:02:42;100120.63;;;17.94;100.00
51299;BME280;37382;45.192;9.790;2023-05-16T14:05:10;100124.13;;;17.57;100.00
51299;BME280;37382;45.192;9.790;2023-05-16T14:07:37;100121.25;;;17.74;100.00
51299;BME280;37382;45.192;9.790;2023-05-16T14:10:05;100122.44;;;17.84;100.00
51299;BME280;37382;45.192;9.790;2023-05-16T14:12:33;100128.69;;;17.74;100.00
51299;BME280;37382;45.192;9.790;2023-05-16T14:15:01;100139.56;;;18.18;100.00
51299;BME280;37382;45.192;9.790;2023-05-16T14:17:31;100141.47;;;18.18;100.00
51299;BME280;37382;45.192;9.790;2023-05-16T14:20:02;100149.84;;;18.33;100.00
51299;BME280;37382;45.192;9.790;2023-05-16T14:22:36;100150.34;;;18.67;100.00
51299;BME280;37382;45.192;9.790;2023-05-16T14:25:04;100141.19;;;19.05;100.00
51299;BME280;37382;45.192;9.790;2023-05-16T14:27:32;100143.66;;;18.53;100.00
51299;BME280;37382;45.192;9.790;2023-05-16T14:30:00;100148.47;;;18.30;100.00
51299;BME280;37382;45.192;9.790;2023-05-16T14:32:29;100141.16;;;18.94;100.00
51299;BME280;37382;45.192;9.790;2023-05-16T14:34:57;100145.28;;;18.87;100.00
51299;BME280;37382;45.192;9.790;2023-05-16T14:37:25;100137.16;;;18.75;100.00
51299;BME280;37382;45.192;9.790;2023-05-16T14:39:53;100137.41;;;18.68;100.00
51299;BME280;37382;45.192;9.790;2023-05-16T14:42:21;100139.00;;;19.07;100.00
51299;BME280;37382;45.192;9.790;2023-05-16T14:44:48;100141.84;;;18.74;100.00
51299;BME280;37382;45.192;9.790;2023-05-16T14:47:17;100133.84;;;18.73;100.00
51299;BME280;37382;45.192;9.790;2023-05-16T14:49:44;100122.63;;;18.42;100.00
51299;BME280;37382;45.192;9.790;2023-05-16T14:52:12;100116.22;;;18.26;100.00
51299;BME280;37382;45.192;9.790;2023-05-16T14:54:40;100110.78;;;18.04;100.00
51299;BME280;37382;45.192;9.790;2023-05-16T14:57:09;100112.47;;;18.05;100.00
51299;BME280;37382;45.192;9.790;2023-05-16T14:59:36;100117.94;;;18.37;100.00
51299;BME280;37382;45.192;9.790;2023-05-16T15:02:04;100114.03;;;18.33;100.00
51299;BME280;37382;45.192;9.790;2023-05-16T15:04:33;100109.59;;;18.27;100.00
51299;BME280;37382;45.192;9.790;2023-05-16T15:07:00;100108.41;;;19.08;100.00
51299;BME280;37382;45.192;9.790;2023-05-16T15:09:27;100116.75;;;19.24;100.00
51299;BME280;37382;45.192;9.790;2023-05-16T15:11:55;100115.63;;;19.19;100.00
51299;BME280;37382;45.192;9.790;2023-05-16T15:14:23;100123.50;;;18.85;100.00
51299;BME280;37382;45.192;9.790;2023-05-16T15:16:51;100132.75;;;18.74;100.00
51299;BME280;37382;45.192;9.790;2023-05-16T15:19:20;100134.38;;;18.70;100.00
51299;BME280;37382;45.192;9.790;2023-05-16T15:21:48;100133.44;;;18.48;100.00
51299;BME280;37382;45.192;9.790;2023-05-16T15:24:15;100132.66;;;18.16;100.00
51299;BME280;37382;45.192;9.790;2023-05-16T15:26:44;100131.69;;;18.37;100.00
51299;BME280;37382;45.192;9.790;2023-05-16T15:29:12;100135.09;;;18.49;100.00
51299;BME280;37382;45.192;9.790;2023-05-16T15:31:39;100133.34;;;19.39;100.00
51299;BME280;37382;45.192;9.790;2023-05-16T15:34:07;100133.41;;;19.60;100.00
51299;BME280;37382;45.192;9.790;2023-05-16T15:36:35;100139.25;;;19.79;100.00
51299;BME280;37382;45.192;9.790;2023-05-16T15:39:03;100143.59;;;19.54;100.00
51299;BME280;37382;45.192;9.790;2023-05-16T15:41:31;100142.59;;;19.12;100.00
51299;BME280;37382;45.192;9.790;2023-05-16T15:44:03;100145.22;;;19.55;100.00
51299;BME280;37382;45.192;9.790;2023-05-16T15:46:30;100132.91;;;19.78;100.00
51299;BME280;37382;45.192;9.790;2023-05-16T15:48:59;100140.56;;;19.76;100.00
51299;BME280;37382;45.192;9.790;2023-05-16T15:51:27;100131.44;;;19.45;100.00
51299;BME280;37382;45.192;9.790;2023-05-16T15:53:55;100130.97;;;19.79;100.00
51299;BME280;37382;45.192;9.790;2023-05-16T15:56:23;100114.59;;;19.56;100.00
51299;BME280;37382;45.192;9.790;2023-05-16T15:58:51;100113.03;;;19.86;100.00
51299;BME280;37382;45.192;9.790;2023-05-16T16:01:19;100121.97;;;19.25;100.00
51299;BME280;37382;45.192;9.790;2023-05-16T16:03:47;100124.44;;;19.16;100.00
51299;BME280;37382;45.192;9.790;2023-05-16T16:06:14;100121.72;;;19.22;100.00
51299;BME280;37382;45.192;9.790;2023-05-16T16:08:42;100123.31;;;18.59;100.00
51299;BME280;37382;45.192;9.790;2023-05-16T16:11:10;100109.94;;;18.41;100.00
51299;BME280;37382;45.192;9.790;2023-05-16T16:13:38;100104.25;;;17.83;100.00